sensor_id;sensor_type;location;lat;lon;timestamp;pressure;altitude;pressure_sealevel;temperature;humidity
5298;BME280;14738;42.668;23.250;2024-03-22T00:01:49;48426.03;;;-141.90;43.01
5298;BME280;14738;42.668;23.250;2024-03-22T00:04:17;48414.13;;;-141.90;43.33
5298;BME280;14738;42.668;23.250;2024-03-22T00:06:44;48402.22;;;-141.90;43.53
5298;BME280;14738;42.668;23.250;2024-03-22T00:09:10;48414.13;;;-141.90;43.49
5298;BME280;14738;42.668;23.250;2024-03-22T00:11:36;48437.94;;;-141.90;44.06
5298;BME280;14738;42.668;23.250;2024-03-22T00:14:02;48451.84;;;-141.90;43.99
5298;BME280;14738;42.668;23.250;2024-03-22T00:16:28;48410.16;;;-141.90;44.34
5298;BME280;14738;42.668;23.250;2024-03-22T00:18:53;48445.88;;;-141.90;44.13
5298;BME280;14738;42.668;23.250;2024-03-22T00:21:18;48422.06;;;-141.90;44.23
5298;BME280;14738;42.668;23.250;2024-03-22T00:23:45;48414.13;;;-141.90;43.90
5298;BME280;14738;42.668;23.250;2024-03-22T00:26:11;48435.97;;;-141.90;44.30
5298;BME280;14738;42.668;23.250;2024-03-22T00:28:36;48414.13;;;-141.90;44.46
5298;BME280;14738;42.668;23.250;2024-03-22T00:31:01;48457.81;;;-141.90;44.61
5298;BME280;14738;42.668;23.250;2024-03-22T00:33:27;48420.09;;;-141.90;44.97
5298;BME280;14738;42.668;23.250;2024-03-22T00:35:52;48457.81;;;-141.90;45.36
5298;BME280;14738;42.668;23.250;2024-03-22T00:38:24;48453.81;;;-141.90;45.12
5298;BME280;14738;42.668;23.250;2024-03-22T00:40:50;48424.06;;;-141.90;45.52
5298;BME280;14738;42.668;23.250;2024-03-22T00:43:15;48433.97;;;-141.90;46.27
5298;BME280;14738;42.668;23.250;2024-03-22T00:45:41;48408.16;;;-141.90;45.92
5298;BME280;14738;42.668;23.250;2024-03-22T00:48:06;48424.06;;;-141.90;46.40
5298;BME280;14738;42.668;23.250;2024-03-22T00:50:32;48457.81;;;-141.90;46.52
5298;BME280;14738;42.668;23.250;2024-03-22T00:52:57;48433.97;;;-141.90;46.81
5298;BME280;14738;42.668;23.250;2024-03-22T00:55:23;48426.03;;;-141.90;46.82
5298;BME280;14738;42.668;23.250;2024-03-22T00:57:49;48441.91;;;-141.90;47.33
5298;BME280;14738;42.668;23.250;2024-03-22T01:00:14;48430.00;;;-141.90;47.51
5298;BME280;14738;42.668;23.250;2024-03-22T01:02:41;48447.88;;;-141.90;47.53
5298;BME280;14738;42.668;23.250;2024-03-22T01:05:06;48449.84;;;-141.90;47.61
5298;BME280;14738;42.668;23.250;2024-03-22T01:07:32;48443.91;;;-141.90;47.77
5298;BME280;14738;42.668;23.250;2024-03-22T01:09:57;48479.63;;;-141.90;48.07
5298;BME280;14738;42.668;23.250;2024-03-22T01:12:23;48443.91;;;-141.90;47.81
5298;BME280;14738;42.668;23.250;2024-03-22T01:14:48;48441.91;;;-141.90;48.23
5298;BME280;14738;42.668;23.250;2024-03-22T01:17:13;48467.72;;;-141.90;48.42
5298;BME280;14738;42.668;23.250;2024-03-22T01:19:39;48467.72;;;-141.90;48.75
5298;BME280;14738;42.668;23.250;2024-03-22T01:22:04;48457.81;;;-141.90;48.74
5298;BME280;14738;42.668;23.250;2024-03-22T01:24:29;48471.69;;;-141.90;49.21
5298;BME280;14738;42.668;23.250;2024-03-22T01:26:55;48441.91;;;-141.90;49.10
5298;BME280;14738;42.668;23.250;2024-03-22T01:29:20;48479.63;;;-141.90;49.08
5298;BME280;14738;42.668;23.250;2024-03-22T01:31:47;48443.91;;;-141.90;49.13
5298;BME280;14738;42.668;23.250;2024-03-22T01:34:12;48475.66;;;-141.90;49.14
5298;BME280;14738;42.668;23.250;2024-03-22T01:36:38;48475.66;;;-141.90;48.75
5298;BME280;14738;42.668;23.250;2024-03-22T01:39:03;48481.63;;;-141.90;48.85
5298;BME280;14738;42.668;23.250;2024-03-22T01:41:29;48467.72;;;-141.90;48.67
5298;BME280;14738;42.668;23.250;2024-03-22T01:43:54;48457.81;;;-141.90;48.59
5298;BME280;14738;42.668;23.250;2024-03-22T01:46:19;48465.75;;;-141.90;48.47
5298;BME280;14738;42.668;23.250;2024-03-22T01:48:45;48457.81;;;-141.90;48.29
5298;BME280;14738;42.668;23.250;2024-03-22T01:51:10;48451.84;;;-141.90;48.37
5298;BME280;14738;42.668;23.250;2024-03-22T01:53:37;48463.75;;;-141.90;48.25
5298;BME280;14738;42.668;23.250;2024-03-22T01:56:03;48457.81;;;-141.90;48.32
5298;BME280;14738;42.668;23.250;2024-03-22T01:58:30;48481.63;;;-141.90;48.49
5298;BME280;14738;42.668;23.250;2024-03-22T02:00:56;48451.84;;;-141.90;48.49
5298;BME280;14738;42.668;23.250;2024-03-22T02:03:21;48449.84;;;-141.90;48.05
5298;BME280;14738;42.668;23.250;2024-03-22T02:05:47;48459.78;;;-141.90;48.32
5298;BME280;14738;42.668;23.250;2024-03-22T02:08:12;48457.81;;;-141.90;48.72
5298;BME280;14738;42.668;23.250;2024-03-22T02:10:38;48461.78;;;-141.90;48.94
5298;BME280;14738;42.668;23.250;2024-03-22T02:13:03;48477.66;;;-141.90;49.23
5298;BME280;14738;42.668;23.250;2024-03-22T02:15:29;48461.78;;;-141.90;49.85
5298;BME280;14738;42.668;23.250;2024-03-22T02:17:55;48453.81;;;-141.90;49.13
5298;BME280;14738;42.668;23.250;2024-03-22T02:20:20;48461.78;;;-141.90;49.08
5298;BME280;14738;42.668;23.250;2024-03-22T02:22:46;48445.88;;;-141.90;48.71
5298;BME280;14738;42.668;23.250;2024-03-22T02:25:11;48457.81;;;-141.90;48.87
5298;BME280;14738;42.668;23.250;2024-03-22T02:27:38;48471.69;;;-141.90;48.94
5298;BME280;14738;42.668;23.250;2024-03-22T02:30:04;48471.69;;;-141.90;49.07
5298;BME280;14738;42.668;23.250;2024-03-22T02:32:30;48451.84;;;-141.90;49.33
5298;BME280;14738;42.668;23.250;2024-03-22T02:34:59;48449.84;;;-141.90;49.94
5298;BME280;14738;42.668;23.250;2024-03-22T02:37:24;48449.84;;;-141.90;49.81
5298;BME280;14738;42.668;23.250;2024-03-22T02:39:49;48483.59;;;-141.90;49.74
5298;BME280;14738;42.668;23.250;2024-03-22T02:42:15;48453.81;;;-141.90;49.71
5298;BME280;14738;42.668;23.250;2024-03-22T02:44:43;48459.78;;;-141.90;50.12
5298;BME280;14738;42.668;23.250;2024-03-22T02:47:09;48432.00;;;-141.90;50.27
5298;BME280;14738;42.668;23.250;2024-03-22T02:49:35;48469.72;;;-141.90;50.27
5298;BME280;14738;42.668;23.250;2024-03-22T02:52:02;48477.66;;;-141.90;50.47
5298;BME280;14738;42.668;23.250;2024-03-22T02:54:28;48473.69;;;-141.90;50.17
5298;BME280;14738;42.668;23.250;2024-03-22T02:56:53;48489.56;;;-141.90;50.06
5298;BME280;14738;42.668;23.250;2024-03-22T02:59:19;48459.78;;;-141.90;50.01
5298;BME280;14738;42.668;23.250;2024-03-22T03:01:44;48491.56;;;-141.90;50.03
5298;BME280;14738;42.668;23.250;2024-03-22T03:04:09;48459.78;;;-141.90;50.37
5298;BME280;14738;42.668;23.250;2024-03-22T03:06:35;48467.72;;;-141.90;50.15
5298;BME280;14738;42.668;23.250;2024-03-22T03:09:00;48457.81;;;-141.90;49.75
5298;BME280;14738;42.668;23.250;2024-03-22T03:11:26;48469.72;;;-141.90;50.29
5298;BME280;14738;42.668;23.250;2024-03-22T03:13:52;48509.41;;;-141.90;50.39
5298;BME280;14738;42.668;23.250;2024-03-22T03:16:17;48481.63;;;-141.90;50.82
5298;BME280;14738;42.668;23.250;2024-03-22T03:18:43;48473.69;;;-141.90;50.96
5298;BME280;14738;42.668;23.250;2024-03-22T03:21:08;48453.81;;;-141.90;51.31
5298;BME280;14738;42.668;23.250;2024-03-22T03:23:33;48467.72;;;-141.90;51.35
5298;BME280;14738;42.668;23.250;2024-03-22T03:25:59;48461.78;;;-141.90;51.71
5298;BME280;14738;42.668;23.250;2024-03-22T03:28:24;48477.66;;;-141.90;52.17
5298;BME280;14738;42.668;23.250;2024-03-22T03:30:54;48483.59;;;-141.90;53.21
5298;BME280;14738;42.668;23.250;2024-03-22T03:33:19;48473.69;;;-141.90;53.20
5298;BME280;14738;42.668;23.250;2024-03-22T03:35:47;48473.69;;;-141.90;53.02
5298;BME280;14738;42.668;23.250;2024-03-22T03:38:13;48457.81;;;-141.90;52.20
5298;BME280;14738;42.668;23.250;2024-03-22T03:40:38;48461.78;;;-141.90;52.56
5298;BME280;14738;42.668;23.250;2024-03-22T03:43:03;48465.75;;;-141.90;52.62
5298;BME280;14738;42.668;23.250;2024-03-22T03:45:29;48469.72;;;-141.90;52.81
5298;BME280;14738;42.668;23.250;2024-03-22T03:47:54;48509.41;;;-141.90;53.03
5298;BME280;14738;42.668;23.250;2024-03-22T03:50:20;48477.66;;;-141.90;52.92
5298;BME280;14738;42.668;23.250;2024-03-22T03:52:45;48489.56;;;-141.90;53.21
5298;BME280;14738;42.668;23.250;2024-03-22T03:55:10;48467.72;;;-141.90;53.57
5298;BME280;14738;42.668;23.250;2024-03-22T03:57:36;48467.72;;;-141.90;53.99
5298;BME280;14738;42.668;23.250;2024-03-22T04:00:02;48501.47;;;-141.90;54.01
5298;BME280;14738;42.668;23.250;2024-03-22T04:02:27;48465.75;;;-141.90;53.76
5298;BME280;14738;42.668;23.250;2024-03-22T04:04:53;48463.75;;;-141.90;53.39
5298;BME280;14738;42.668;23.250;2024-03-22T04:07:20;48449.84;;;-141.90;53.68
5298;BME280;14738;42.668;23.250;2024-03-22T04:09:45;48481.63;;;-141.90;54.23
5298;BME280;14738;42.668;23.250;2024-03-22T04:12:10;48501.47;;;-141.90;54.51
5298;BME280;14738;42.668;23.250;2024-03-22T04:14:36;48461.78;;;-141.90;54.49
5298;BME280;14738;42.668;23.250;2024-03-22T04:17:01;48525.31;;;-141.90;54.45
5298;BME280;14738;42.668;23.250;2024-03-22T04:19:26;48501.47;;;-141.90;54.62
5298;BME280;14738;42.668;23.250;2024-03-22T04:21:52;48471.69;;;-141.90;54.90
5298;BME280;14738;42.668;23.250;2024-03-22T04:24:18;48509.41;;;-141.90;55.70
5298;BME280;14738;42.668;23.250;2024-03-22T04:26:43;48489.56;;;-141.90;55.67
5298;BME280;14738;42.668;23.250;2024-03-22T04:29:09;48467.72;;;-141.90;55.58
5298;BME280;14738;42.668;23.250;2024-03-22T04:31:35;48507.44;;;-141.90;55.60
5298;BME280;14738;42.668;23.250;2024-03-22T04:34:00;48497.50;;;-141.90;55.92
5298;BME280;14738;42.668;23.250;2024-03-22T04:36:26;48499.50;;;-141.90;56.17
5298;BME280;14738;42.668;23.250;2024-03-22T04:38:51;48477.66;;;-141.90;56.43
5298;BME280;14738;42.668;23.250;2024-03-22T04:41:16;48475.66;;;-141.90;55.99
5298;BME280;14738;42.668;23.250;2024-03-22T04:43:42;48521.34;;;-141.90;55.87
5298;BME280;14738;42.668;23.250;2024-03-22T04:46:08;48481.63;;;-141.90;55.66
5298;BME280;14738;42.668;23.250;2024-03-22T04:48:33;48465.75;;;-141.90;55.41
5298;BME280;14738;42.668;23.250;2024-03-22T04:50:59;48457.81;;;-141.90;54.42
5298;BME280;14738;42.668;23.250;2024-03-22T04:53:24;48451.84;;;-141.90;54.12
5298;BME280;14738;42.668;23.250;2024-03-22T04:55:52;48449.84;;;-141.90;53.03
5298;BME280;14738;42.668;23.250;2024-03-22T04:58:19;48441.91;;;-141.90;48.79
5298;BME280;14738;42.668;23.250;2024-03-22T05:00:45;48428.03;;;-141.90;45.08
5298;BME280;14738;42.668;23.250;2024-03-22T05:03:11;48416.09;;;-141.90;40.94
5298;BME280;14738;42.668;23.250;2024-03-22T05:05:37;48424.06;;;-141.90;38.12
5298;BME280;14738;42.668;23.250;2024-03-22T05:08:03;48404.19;;;-141.90;37.30
5298;BME280;14738;42.668;23.250;2024-03-22T05:10:32;48394.28;;;-141.90;35.39
5298;BME280;14738;42.668;23.250;2024-03-22T05:12:58;48400.22;;;-141.90;34.08
5298;BME280;14738;42.668;23.250;2024-03-22T05:15:24;48372.44;;;-141.90;33.03
5298;BME280;14738;42.668;23.250;2024-03-22T05:17:53;48378.38;;;-141.90;32.58
5298;BME280;14738;42.668;23.250;2024-03-22T05:20:20;48394.28;;;-141.90;32.13
5298;BME280;14738;42.668;23.250;2024-03-22T05:22:47;48326.78;;;-141.90;32.59
5298;BME280;14738;42.668;23.250;2024-03-22T05:25:12;48374.41;;;-141.90;30.94
5298;BME280;14738;42.668;23.250;2024-03-22T05:27:40;48378.38;;;-141.90;32.66
5298;BME280;14738;42.668;23.250;2024-03-22T05:30:11;48360.53;;;-141.90;31.61
5298;BME280;14738;42.668;23.250;2024-03-22T05:32:37;48362.50;;;-141.90;30.56
5298;BME280;14738;42.668;23.250;2024-03-22T05:35:04;48362.50;;;-141.90;28.91
5298;BME280;14738;42.668;23.250;2024-03-22T05:37:29;48350.59;;;-141.90;29.65
5298;BME280;14738;42.668;23.250;2024-03-22T05:39:55;48398.25;;;-141.90;29.62
5298;BME280;14738;42.668;23.250;2024-03-22T05:42:20;48378.38;;;-141.90;29.16
5298;BME280;14738;42.668;23.250;2024-03-22T05:44:46;48410.16;;;-141.90;27.85
5298;BME280;14738;42.668;23.250;2024-03-22T05:47:11;48398.25;;;-141.90;27.56
5298;BME280;14738;42.668;23.250;2024-03-22T05:49:36;48370.44;;;-141.90;28.04
5298;BME280;14738;42.668;23.250;2024-03-22T05:52:02;48366.47;;;-141.90;27.40
5298;BME280;14738;42.668;23.250;2024-03-22T05:54:28;48398.25;;;-141.90;27.16
5298;BME280;14738;42.668;23.250;2024-03-22T05:56:55;48358.53;;;-141.90;27.75
5298;BME280;14738;42.668;23.250;2024-03-22T05:59:21;48370.44;;;-141.90;26.65
5298;BME280;14738;42.668;23.250;2024-03-22T06:01:46;48366.47;;;-141.90;26.27
5298;BME280;14738;42.668;23.250;2024-03-22T06:04:12;48378.38;;;-141.90;27.02
5298;BME280;14738;42.668;23.250;2024-03-22T06:06:37;48392.28;;;-141.90;26.41
5298;BME280;14738;42.668;23.250;2024-03-22T06:09:03;48398.25;;;-141.90;27.13
5298;BME280;14738;42.668;23.250;2024-03-22T06:11:30;48378.38;;;-141.90;27.29
5298;BME280;14738;42.668;23.250;2024-03-22T06:13:55;48392.28;;;-141.90;27.10
5298;BME280;14738;42.668;23.250;2024-03-22T06:16:21;48370.44;;;-141.90;26.49
5298;BME280;14738;42.668;23.250;2024-03-22T06:18:46;48356.56;;;-141.90;25.63
5298;BME280;14738;42.668;23.250;2024-03-22T06:21:11;48362.50;;;-141.90;24.98
5298;BME280;14738;42.668;23.250;2024-03-22T06:23:39;48378.38;;;-141.90;25.13
5298;BME280;14738;42.668;23.250;2024-03-22T06:26:05;48378.38;;;-141.90;27.42
5298;BME280;14738;42.668;23.250;2024-03-22T06:28:30;48370.44;;;-141.90;25.60
5298;BME280;14738;42.668;23.250;2024-03-22T06:30:55;48356.56;;;-141.90;26.10
5298;BME280;14738;42.668;23.250;2024-03-22T06:33:21;48362.50;;;-141.90;26.21
5298;BME280;14738;42.668;23.250;2024-03-22T06:35:47;48360.53;;;-141.90;27.10
5298;BME280;14738;42.668;23.250;2024-03-22T06:38:12;48352.59;;;-141.90;27.23
5298;BME280;14738;42.668;23.250;2024-03-22T06:40:38;48352.59;;;-141.90;27.22
5298;BME280;14738;42.668;23.250;2024-03-22T06:43:04;48342.66;;;-141.90;26.72
5298;BME280;14738;42.668;23.250;2024-03-22T06:45:29;48364.50;;;-141.90;27.62
5298;BME280;14738;42.668;23.250;2024-03-22T06:47:54;48352.59;;;-141.90;26.78
5298;BME280;14738;42.668;23.250;2024-03-22T06:50:20;48350.59;;;-141.90;26.46
5298;BME280;14738;42.668;23.250;2024-03-22T06:52:52;48378.38;;;-141.90;24.98
5298;BME280;14738;42.668;23.250;2024-03-22T06:55:19;48362.50;;;-141.90;24.09
5298;BME280;14738;42.668;23.250;2024-03-22T06:57:46;48374.41;;;-141.90;23.57
5298;BME280;14738;42.668;23.250;2024-03-22T07:00:12;48350.59;;;-141.90;23.94
5298;BME280;14738;42.668;23.250;2024-03-22T07:02:38;48370.44;;;-141.90;24.91
5298;BME280;14738;42.668;23.250;2024-03-22T07:05:05;48362.50;;;-141.90;24.94
5298;BME280;14738;42.668;23.250;2024-03-22T07:07:30;48378.38;;;-141.90;25.50
5298;BME280;14738;42.668;23.250;2024-03-22T07:09:56;48364.50;;;-141.90;25.85
5298;BME280;14738;42.668;23.250;2024-03-22T07:12:22;48360.53;;;-141.90;26.75
5298;BME280;14738;42.668;23.250;2024-03-22T07:14:47;48342.66;;;-141.90;27.19
5298;BME280;14738;42.668;23.250;2024-03-22T07:17:13;48334.72;;;-141.90;27.95
5298;BME280;14738;42.668;23.250;2024-03-22T07:19:38;48370.44;;;-141.90;27.96
5298;BME280;14738;42.668;23.250;2024-03-22T07:22:03;48370.44;;;-141.90;27.55
5298;BME280;14738;42.668;23.250;2024-03-22T07:24:29;48348.63;;;-141.90;28.53
5298;BME280;14738;42.668;23.250;2024-03-22T07:26:54;48346.63;;;-141.90;28.66
5298;BME280;14738;42.668;23.250;2024-03-22T07:29:20;48332.72;;;-141.90;29.59
5298;BME280;14738;42.668;23.250;2024-03-22T07:31:46;48360.53;;;-141.90;29.35
5298;BME280;14738;42.668;23.250;2024-03-22T07:34:11;48350.59;;;-141.90;30.02
5298;BME280;14738;42.668;23.250;2024-03-22T07:36:39;48358.53;;;-141.90;29.56
5298;BME280;14738;42.668;23.250;2024-03-22T07:39:05;48378.38;;;-141.90;30.09
5298;BME280;14738;42.668;23.250;2024-03-22T07:41:34;48366.47;;;-141.90;29.66
5298;BME280;14738;42.668;23.250;2024-03-22T07:44:00;48358.53;;;-141.90;29.74
5298;BME280;14738;42.668;23.250;2024-03-22T07:46:27;48334.72;;;-141.90;30.25
5298;BME280;14738;42.668;23.250;2024-03-22T07:48:53;48360.53;;;-141.90;29.33
5298;BME280;14738;42.668;23.250;2024-03-22T07:51:19;48370.44;;;-141.90;29.77
5298;BME280;14738;42.668;23.250;2024-03-22T07:53:44;48362.50;;;-141.90;29.79
5298;BME280;14738;42.668;23.250;2024-03-22T07:56:10;48358.53;;;-141.90;29.80
5298;BME280;14738;42.668;23.250;2024-03-22T07:58:36;48356.56;;;-141.90;29.83
5298;BME280;14738;42.668;23.250;2024-03-22T08:01:01;48344.63;;;-141.90;30.08
5298;BME280;14738;42.668;23.250;2024-03-22T08:03:27;48358.53;;;-141.90;30.20
5298;BME280;14738;42.668;23.250;2024-03-22T08:05:52;48356.56;;;-141.90;30.36
5298;BME280;14738;42.668;23.250;2024-03-22T08:08:18;48354.56;;;-141.90;30.67
5298;BME280;14738;42.668;23.250;2024-03-22T08:10:43;48378.38;;;-141.90;31.05
5298;BME280;14738;42.668;23.250;2024-03-22T08:13:09;48328.75;;;-141.90;30.24
5298;BME280;14738;42.668;23.250;2024-03-22T08:15:35;48350.59;;;-141.90;30.39
5298;BME280;14738;42.668;23.250;2024-03-22T08:18:00;48358.53;;;-141.90;30.65
5298;BME280;14738;42.668;23.250;2024-03-22T08:20:26;48386.34;;;-141.90;30.59
5298;BME280;14738;42.668;23.250;2024-03-22T08:22:51;48366.47;;;-141.90;30.71
5298;BME280;14738;42.668;23.250;2024-03-22T08:25:17;48342.66;;;-141.90;30.16
5298;BME280;14738;42.668;23.250;2024-03-22T08:27:44;48354.56;;;-141.90;30.72
5298;BME280;14738;42.668;23.250;2024-03-22T08:30:10;48350.59;;;-141.90;30.12
5298;BME280;14738;42.668;23.250;2024-03-22T08:32:36;48374.41;;;-141.90;29.76
5298;BME280;14738;42.668;23.250;2024-03-22T08:35:02;48364.50;;;-141.90;30.21
5298;BME280;14738;42.668;23.250;2024-03-22T08:37:29;48394.28;;;-141.90;29.36
5298;BME280;14738;42.668;23.250;2024-03-22T08:39:55;48366.47;;;-141.90;28.08
5298;BME280;14738;42.668;23.250;2024-03-22T08:42:20;48366.47;;;-141.90;28.99
5298;BME280;14738;42.668;23.250;2024-03-22T08:44:46;48374.41;;;-141.90;28.92
5298;BME280;14738;42.668;23.250;2024-03-22T08:47:11;48396.25;;;-141.90;28.85
5298;BME280;14738;42.668;23.250;2024-03-22T08:49:37;48360.53;;;-141.90;28.19
5298;BME280;14738;42.668;23.250;2024-03-22T08:52:02;48350.59;;;-141.90;29.19
5298;BME280;14738;42.668;23.250;2024-03-22T08:54:28;48356.56;;;-141.90;28.46
5298;BME280;14738;42.668;23.250;2024-03-22T08:56:53;48350.59;;;-141.90;28.91
5298;BME280;14738;42.668;23.250;2024-03-22T08:59:19;48358.53;;;-141.90;28.11
5298;BME280;14738;42.668;23.250;2024-03-22T09:01:44;48354.56;;;-141.90;28.28
5298;BME280;14738;42.668;23.250;2024-03-22T09:04:09;48356.56;;;-141.90;28.71
5298;BME280;14738;42.668;23.250;2024-03-22T09:06:35;48338.69;;;-141.90;28.96
5298;BME280;14738;42.668;23.250;2024-03-22T09:09:00;48338.69;;;-141.90;28.27
5298;BME280;14738;42.668;23.250;2024-03-22T09:11:26;48378.38;;;-141.90;28.33
5298;BME280;14738;42.668;23.250;2024-03-22T09:13:52;48362.50;;;-141.90;28.36
5298;BME280;14738;42.668;23.250;2024-03-22T09:16:18;48330.75;;;-141.90;28.10
5298;BME280;14738;42.668;23.250;2024-03-22T09:18:43;48362.50;;;-141.90;28.62
5298;BME280;14738;42.668;23.250;2024-03-22T09:21:08;48378.38;;;-141.90;27.53
5298;BME280;14738;42.668;23.250;2024-03-22T09:23:35;48338.69;;;-141.90;27.19
5298;BME280;14738;42.668;23.250;2024-03-22T09:26:01;48350.59;;;-141.90;27.97
5298;BME280;14738;42.668;23.250;2024-03-22T09:28:26;48344.63;;;-141.90;27.72
5298;BME280;14738;42.668;23.250;2024-03-22T09:30:51;48346.63;;;-141.90;27.23
5298;BME280;14738;42.668;23.250;2024-03-22T09:33:17;48362.50;;;-141.90;27.42
5298;BME280;14738;42.668;23.250;2024-03-22T09:35:43;48378.38;;;-141.90;28.15
5298;BME280;14738;42.668;23.250;2024-03-22T09:38:08;48368.47;;;-141.90;27.45
5298;BME280;14738;42.668;23.250;2024-03-22T09:40:34;48348.63;;;-141.90;26.99
5298;BME280;14738;42.668;23.250;2024-03-22T09:43:03;48358.53;;;-141.90;27.82
5298;BME280;14738;42.668;23.250;2024-03-22T09:45:31;48350.59;;;-141.90;27.61
5298;BME280;14738;42.668;23.250;2024-03-22T09:47:57;48380.38;;;-141.90;27.34
5298;BME280;14738;42.668;23.250;2024-03-22T09:50:23;48374.41;;;-141.90;27.20
5298;BME280;14738;42.668;23.250;2024-03-22T09:52:51;48342.66;;;-141.90;26.79
5298;BME280;14738;42.668;23.250;2024-03-22T09:55:22;48326.78;;;-141.90;27.34
5298;BME280;14738;42.668;23.250;2024-03-22T09:57:48;48378.38;;;-141.90;27.47
5298;BME280;14738;42.668;23.250;2024-03-22T10:00:17;48374.41;;;-141.90;27.70
5298;BME280;14738;42.668;23.250;2024-03-22T10:02:43;48334.72;;;-141.90;27.47
5298;BME280;14738;42.668;23.250;2024-03-22T10:05:10;48358.53;;;-141.90;26.55
5298;BME280;14738;42.668;23.250;2024-03-22T10:07:36;48354.56;;;-141.90;26.29
5298;BME280;14738;42.668;23.250;2024-03-22T10:10:01;48358.53;;;-141.90;26.76
5298;BME280;14738;42.668;23.250;2024-03-22T10:12:28;48362.50;;;-141.90;26.67
5298;BME280;14738;42.668;23.250;2024-03-22T10:14:53;48334.72;;;-141.90;26.87
5298;BME280;14738;42.668;23.250;2024-03-22T10:17:19;48372.44;;;-141.90;26.72
5298;BME280;14738;42.668;23.250;2024-03-22T10:19:45;48378.38;;;-141.90;26.79
5298;BME280;14738;42.668;23.250;2024-03-22T10:22:10;48350.59;;;-141.90;27.12
5298;BME280;14738;42.668;23.250;2024-03-22T10:24:36;48342.66;;;-141.90;27.72
5298;BME280;14738;42.668;23.250;2024-03-22T10:27:01;48340.66;;;-141.90;26.80
5298;BME280;14738;42.668;23.250;2024-03-22T10:29:27;48348.63;;;-141.90;25.98
5298;BME280;14738;42.668;23.250;2024-03-22T10:31:54;48366.47;;;-141.90;26.46
5298;BME280;14738;42.668;23.250;2024-03-22T10:34:24;48346.63;;;-141.90;26.22
5298;BME280;14738;42.668;23.250;2024-03-22T10:36:49;48366.47;;;-141.90;26.99
5298;BME280;14738;42.668;23.250;2024-03-22T10:39:17;48354.56;;;-141.90;26.31
5298;BME280;14738;42.668;23.250;2024-03-22T10:41:45;48322.81;;;-141.90;26.08
5298;BME280;14738;42.668;23.250;2024-03-22T10:44:10;48366.47;;;-141.90;26.26
5298;BME280;14738;42.668;23.250;2024-03-22T10:46:37;48332.72;;;-141.90;26.60
5298;BME280;14738;42.668;23.250;2024-03-22T10:49:02;48366.47;;;-141.90;25.87
5298;BME280;14738;42.668;23.250;2024-03-22T10:51:32;48358.53;;;-141.90;26.45
5298;BME280;14738;42.668;23.250;2024-03-22T10:54:01;48358.53;;;-141.90;26.26
5298;BME280;14738;42.668;23.250;2024-03-22T10:56:28;48348.63;;;-141.90;26.93
5298;BME280;14738;42.668;23.250;2024-03-22T10:58:54;48350.59;;;-141.90;26.29
5298;BME280;14738;42.668;23.250;2024-03-22T11:01:24;48340.66;;;-141.90;25.77
5298;BME280;14738;42.668;23.250;2024-03-22T11:03:50;48358.53;;;-141.90;25.87
5298;BME280;14738;42.668;23.250;2024-03-22T11:06:19;48338.69;;;-141.90;25.46
5298;BME280;14738;42.668;23.250;2024-03-22T11:08:51;48386.34;;;-141.90;26.17
5298;BME280;14738;42.668;23.250;2024-03-22T11:11:18;48358.53;;;-141.90;26.05
5298;BME280;14738;42.668;23.250;2024-03-22T11:13:47;48342.66;;;-141.90;25.83
5298;BME280;14738;42.668;23.250;2024-03-22T11:16:13;48372.44;;;-141.90;26.03
5298;BME280;14738;42.668;23.250;2024-03-22T11:18:39;48374.41;;;-141.90;25.34
5298;BME280;14738;42.668;23.250;2024-03-22T11:21:04;48344.63;;;-141.90;24.70
5298;BME280;14738;42.668;23.250;2024-03-22T11:23:32;48358.53;;;-141.90;24.52
5298;BME280;14738;42.668;23.250;2024-03-22T11:25:58;48336.69;;;-141.90;24.06
5298;BME280;14738;42.668;23.250;2024-03-22T11:28:24;48356.56;;;-141.90;24.50
5298;BME280;14738;42.668;23.250;2024-03-22T11:30:49;48364.50;;;-141.90;25.00
5298;BME280;14738;42.668;23.250;2024-03-22T11:33:17;48378.38;;;-141.90;24.45
5298;BME280;14738;42.668;23.250;2024-03-22T11:35:44;48392.28;;;-141.90;24.82
5298;BME280;14738;42.668;23.250;2024-03-22T11:38:09;48350.59;;;-141.90;24.59
5298;BME280;14738;42.668;23.250;2024-03-22T11:40:35;48342.66;;;-141.90;23.93
5298;BME280;14738;42.668;23.250;2024-03-22T11:43:02;48352.59;;;-141.90;24.68
5298;BME280;14738;42.668;23.250;2024-03-22T11:45:28;48362.50;;;-141.90;24.37
5298;BME280;14738;42.668;23.250;2024-03-22T11:47:54;48332.72;;;-141.90;24.17
5298;BME280;14738;42.668;23.250;2024-03-22T11:50:19;48346.63;;;-141.90;24.37
5298;BME280;14738;42.668;23.250;2024-03-22T11:52:45;48366.47;;;-141.90;24.92
5298;BME280;14738;42.668;23.250;2024-03-22T11:55:14;48352.59;;;-141.90;25.00
5298;BME280;14738;42.668;23.250;2024-03-22T11:57:41;48352.59;;;-141.90;24.90
5298;BME280;14738;42.668;23.250;2024-03-22T12:00:07;48374.41;;;-141.90;24.20
5298;BME280;14738;42.668;23.250;2024-03-22T12:02:38;48372.44;;;-141.90;23.78
5298;BME280;14738;42.668;23.250;2024-03-22T12:05:04;48354.56;;;-141.90;23.76
5298;BME280;14738;42.668;23.250;2024-03-22T12:07:30;48336.69;;;-141.90;24.39
5298;BME280;14738;42.668;23.250;2024-03-22T12:09:56;48348.63;;;-141.90;24.83
5298;BME280;14738;42.668;23.250;2024-03-22T12:12:22;48362.50;;;-141.90;24.87
5298;BME280;14738;42.668;23.250;2024-03-22T12:14:50;48390.31;;;-141.90;24.70
5298;BME280;14738;42.668;23.250;2024-03-22T12:17:16;48362.50;;;-141.90;25.00
5298;BME280;14738;42.668;23.250;2024-03-22T12:19:41;48384.34;;;-141.90;24.42
5298;BME280;14738;42.668;23.250;2024-03-22T12:22:07;48350.59;;;-141.90;24.34
5298;BME280;14738;42.668;23.250;2024-03-22T12:24:33;48370.44;;;-141.90;23.78
5298;BME280;14738;42.668;23.250;2024-03-22T12:26:58;48344.63;;;-141.90;23.88
5298;BME280;14738;42.668;23.250;2024-03-22T12:29:24;48366.47;;;-141.90;24.29
5298;BME280;14738;42.668;23.250;2024-03-22T12:31:50;48358.53;;;-141.90;23.76
5298;BME280;14738;42.668;23.250;2024-03-22T12:34:15;48346.63;;;-141.90;23.99